This is the latest recevied weather packets stored in our database for station/object AE5TC. If no packets are shown the sender has not sent any weather packets the latest 10 day(s).
| Time | Temp. | Humidity | Pressure | Rain* | Wind** | Luminosity | Snow |
|---|---|---|---|---|---|---|---|
| 1777563907 | 28.33° C | 77% | 1011.7 hPa | 0 mm | - | 715 W/m² | - |
| 1777563602 | 28.89° C | 76% | 1011.9 hPa | 0 mm | - | 693 W/m² | - |
| 1777563302 | 27.78° C | 80% | 1011.7 hPa | 0 mm | - | 669 W/m² | - |
| 1777562999 | 27.78° C | 81% | 1011.5 hPa | 0 mm | - | 662 W/m² | - |
| 1777562694 | 28.33° C | 80% | 1011.3 hPa | 0 mm | - | 655 W/m² | - |
| 1777562388 | 27.78° C | 82% | 1011.5 hPa | 0 mm | - | 648 W/m² | - |
| 1777562084 | 28.33° C | 81% | 1011.6 hPa | 0 mm | - | 648 W/m² | - |
| 1777561781 | 27.78° C | 84% | 1011.2 hPa | 0 mm | - | 654 W/m² | - |
| 1777561478 | 27.22° C | 86% | 1011.4 hPa | 0 mm | - | 630 W/m² | - |
| 1777561173 | 26.67° C | 88% | 1011.2 hPa | 0 mm | - | 687 W/m² | - |
| 1777560868 | 26.67° C | 90% | 1011.3 hPa | 0 mm | - | 296 W/m² | - |
| 1777560566 | 26.11° C | 90% | 1011.4 hPa | 0 mm | - | 315 W/m² | - |
| 1777560263 | 27.22° C | 88% | 1011.5 hPa | 0 mm | - | 302 W/m² | - |
| 1777559961 | 26.67° C | 88% | 1011.3 hPa | 0 mm | - | 409 W/m² | - |
| 1777559655 | 26.67° C | 87% | 1011.5 hPa | 0 mm | - | 376 W/m² | - |
| 1777559353 | 27.22° C | 88% | 1011.2 hPa | 0 mm | - | 347 W/m² | - |
| 1777559049 | 26.67° C | 89% | 1011 hPa | 0 mm | - | 585 W/m² | - |
| 1777558744 | 26.11° C | 91% | 1011.2 hPa | 0 mm | - | 385 W/m² | - |
| 1777558440 | 26.11° C | 92% | 1011 hPa | 0 mm | - | 293 W/m² | - |
| 1777558136 | 26.67° C | 90% | 1010.9 hPa | 0 mm | - | 273 W/m² | - |
| 1777557833 | 26.67° C | 91% | 1010.9 hPa | 0 mm | - | 274 W/m² | - |
| 1777557530 | 26.11° C | 92% | 1011.1 hPa | 0 mm | - | 236 W/m² | - |
| 1777557226 | 25.56° C | 94% | 1011.2 hPa | 0 mm | - | 251 W/m² | - |
| 1777556917 | 25° C | 94% | 1010.9 hPa | 0 mm | - | 144 W/m² | - |
| 1777556612 | 25° C | 94% | 1010.8 hPa | 0 mm | - | 150 W/m² | - |
* Rain latest hour (hover to see other rain measurements)
** Current wind speed in m/s (hover to see current wind gust speed)